sensor_id;sensor_type;location;lat;lon;timestamp;P1;durP1;ratioP1;P2;durP2;ratioP2
68757;SDS011;55747;51.998;4.466;2022-09-17T00:01:43;6.78;;;1.25;;
68757;SDS011;55747;51.998;4.466;2022-09-17T00:04:08;9.75;;;1.10;;
68757;SDS011;55747;51.998;4.466;2022-09-17T00:06:34;9.23;;;1.10;;
68757;SDS011;55747;51.998;4.466;2022-09-17T00:09:00;10.05;;;1.48;;
68757;SDS011;55747;51.998;4.466;2022-09-17T00:11:28;12.65;;;1.55;;
68757;SDS011;55747;51.998;4.466;2022-09-17T00:13:54;13.57;;;1.50;;
68757;SDS011;55747;51.998;4.466;2022-09-17T00:16:27;13.63;;;2.10;;
68757;SDS011;55747;51.998;4.466;2022-09-17T00:19:01;14.40;;;1.70;;
68757;SDS011;55747;51.998;4.466;2022-09-17T00:21:28;14.13;;;1.52;;
68757;SDS011;55747;51.998;4.466;2022-09-17T00:24:01;12.35;;;1.48;;
68757;SDS011;55747;51.998;4.466;2022-09-17T00:26:30;11.32;;;1.30;;
68757;SDS011;55747;51.998;4.466;2022-09-17T00:28:57;15.40;;;1.80;;
68757;SDS011;55747;51.998;4.466;2022-09-17T00:31:23;11.98;;;1.85;;
68757;SDS011;55747;51.998;4.466;2022-09-17T00:33:50;25.45;;;2.15;;
68757;SDS011;55747;51.998;4.466;2022-09-17T00:36:17;14.25;;;1.50;;
68757;SDS011;55747;51.998;4.466;2022-09-17T00:38:47;15.73;;;1.77;;
68757;SDS011;55747;51.998;4.466;2022-09-17T00:41:13;13.55;;;1.58;;
68757;SDS011;55747;51.998;4.466;2022-09-17T00:46:28;13.27;;;1.50;;
68757;SDS011;55747;51.998;4.466;2022-09-17T00:49:03;15.20;;;2.05;;
68757;SDS011;55747;51.998;4.466;2022-09-17T00:51:35;11.63;;;1.75;;
68757;SDS011;55747;51.998;4.466;2022-09-17T00:54:04;17.35;;;2.25;;
68757;SDS011;55747;51.998;4.466;2022-09-17T00:56:31;13.80;;;1.52;;
68757;SDS011;55747;51.998;4.466;2022-09-17T00:59:00;12.60;;;1.60;;
68757;SDS011;55747;51.998;4.466;2022-09-17T01:01:27;13.23;;;1.40;;
68757;SDS011;55747;51.998;4.466;2022-09-17T01:03:53;13.02;;;1.75;;
68757;SDS011;55747;51.998;4.466;2022-09-17T01:09:16;13.63;;;2.25;;
68757;SDS011;55747;51.998;4.466;2022-09-17T01:12:41;14.38;;;1.85;;
68757;SDS011;55747;51.998;4.466;2022-09-17T01:20:45;10.10;;;1.95;;
68757;SDS011;55747;51.998;4.466;2022-09-17T01:26:37;15.15;;;2.17;;
68757;SDS011;55747;51.998;4.466;2022-09-17T01:31:52;10.45;;;1.65;;
68757;SDS011;55747;51.998;4.466;2022-09-17T01:34:51;11.00;;;1.70;;
68757;SDS011;55747;51.998;4.466;2022-09-17T01:37:42;15.85;;;1.65;;
68757;SDS011;55747;51.998;4.466;2022-09-17T01:40:16;15.32;;;2.10;;
68757;SDS011;55747;51.998;4.466;2022-09-17T01:43:01;15.15;;;1.70;;
68757;SDS011;55747;51.998;4.466;2022-09-17T01:45:34;11.88;;;1.40;;
68757;SDS011;55747;51.998;4.466;2022-09-17T01:50:43;17.20;;;2.30;;
68757;SDS011;55747;51.998;4.466;2022-09-17T01:53:13;15.93;;;2.10;;
68757;SDS011;55747;51.998;4.466;2022-09-17T01:55:42;11.90;;;1.90;;
68757;SDS011;55747;51.998;4.466;2022-09-17T01:58:43;13.02;;;1.85;;
68757;SDS011;55747;51.998;4.466;2022-09-17T02:01:06;16.17;;;2.15;;
68757;SDS011;55747;51.998;4.466;2022-09-17T02:03:38;20.20;;;2.30;;
68757;SDS011;55747;51.998;4.466;2022-09-17T02:06:13;12.60;;;1.80;;
68757;SDS011;55747;51.998;4.466;2022-09-17T02:11:13;14.38;;;1.83;;
68757;SDS011;55747;51.998;4.466;2022-09-17T02:13:50;20.73;;;1.88;;
68757;SDS011;55747;51.998;4.466;2022-09-17T02:16:24;14.15;;;1.80;;
68757;SDS011;55747;51.998;4.466;2022-09-17T02:18:54;16.00;;;1.58;;
68757;SDS011;55747;51.998;4.466;2022-09-17T02:24:23;12.90;;;1.50;;
68757;SDS011;55747;51.998;4.466;2022-09-17T02:27:01;15.85;;;2.47;;
68757;SDS011;55747;51.998;4.466;2022-09-17T02:29:36;11.23;;;1.77;;
68757;SDS011;55747;51.998;4.466;2022-09-17T02:34:29;17.77;;;2.25;;
68757;SDS011;55747;51.998;4.466;2022-09-17T02:36:55;9.90;;;1.50;;
68757;SDS011;55747;51.998;4.466;2022-09-17T02:39:22;14.10;;;1.77;;
68757;SDS011;55747;51.998;4.466;2022-09-17T02:41:52;11.23;;;1.73;;
68757;SDS011;55747;51.998;4.466;2022-09-17T02:44:47;13.43;;;1.60;;
68757;SDS011;55747;51.998;4.466;2022-09-17T02:50:33;15.43;;;1.52;;
68757;SDS011;55747;51.998;4.466;2022-09-17T02:55:59;10.43;;;1.30;;
68757;SDS011;55747;51.998;4.466;2022-09-17T02:58:37;10.95;;;1.48;;
68757;SDS011;55747;51.998;4.466;2022-09-17T03:01:12;14.93;;;1.40;;
68757;SDS011;55747;51.998;4.466;2022-09-17T03:03:51;11.23;;;1.38;;
68757;SDS011;55747;51.998;4.466;2022-09-17T03:06:18;11.48;;;1.15;;
68757;SDS011;55747;51.998;4.466;2022-09-17T03:08:44;15.45;;;1.80;;
68757;SDS011;55747;51.998;4.466;2022-09-17T03:11:11;14.35;;;1.80;;
68757;SDS011;55747;51.998;4.466;2022-09-17T03:13:37;12.63;;;1.52;;
68757;SDS011;55747;51.998;4.466;2022-09-17T03:16:03;7.28;;;1.23;;
68757;SDS011;55747;51.998;4.466;2022-09-17T03:18:29;11.18;;;1.52;;
68757;SDS011;55747;51.998;4.466;2022-09-17T03:20:55;7.25;;;1.30;;
68757;SDS011;55747;51.998;4.466;2022-09-17T03:23:20;11.47;;;1.30;;
68757;SDS011;55747;51.998;4.466;2022-09-17T03:25:45;12.80;;;1.60;;
68757;SDS011;55747;51.998;4.466;2022-09-17T03:28:11;9.55;;;1.50;;
68757;SDS011;55747;51.998;4.466;2022-09-17T03:30:36;17.42;;;1.90;;
68757;SDS011;55747;51.998;4.466;2022-09-17T03:33:02;14.65;;;2.17;;
68757;SDS011;55747;51.998;4.466;2022-09-17T03:35:27;13.73;;;1.52;;
68757;SDS011;55747;51.998;4.466;2022-09-17T03:37:52;11.32;;;1.50;;
68757;SDS011;55747;51.998;4.466;2022-09-17T03:40:18;7.90;;;1.20;;
68757;SDS011;55747;51.998;4.466;2022-09-17T03:42:43;9.20;;;1.35;;
68757;SDS011;55747;51.998;4.466;2022-09-17T03:45:09;7.63;;;1.30;;
68757;SDS011;55747;51.998;4.466;2022-09-17T03:47:35;8.88;;;1.08;;
68757;SDS011;55747;51.998;4.466;2022-09-17T03:50:01;15.60;;;1.45;;
68757;SDS011;55747;51.998;4.466;2022-09-17T03:52:27;10.13;;;1.48;;
68757;SDS011;55747;51.998;4.466;2022-09-17T03:54:52;7.90;;;1.23;;
68757;SDS011;55747;51.998;4.466;2022-09-17T03:57:17;9.83;;;1.40;;
68757;SDS011;55747;51.998;4.466;2022-09-17T03:59:42;9.17;;;1.00;;
68757;SDS011;55747;51.998;4.466;2022-09-17T04:02:08;7.23;;;1.47;;
68757;SDS011;55747;51.998;4.466;2022-09-17T04:04:33;11.37;;;1.23;;
68757;SDS011;55747;51.998;4.466;2022-09-17T04:06:58;7.73;;;1.10;;
68757;SDS011;55747;51.998;4.466;2022-09-17T04:09:23;12.07;;;1.13;;
68757;SDS011;55747;51.998;4.466;2022-09-17T04:11:49;4.77;;;1.00;;
68757;SDS011;55747;51.998;4.466;2022-09-17T04:14:14;6.50;;;1.17;;
68757;SDS011;55747;51.998;4.466;2022-09-17T04:16:39;8.40;;;1.07;;
68757;SDS011;55747;51.998;4.466;2022-09-17T04:19:05;8.90;;;1.08;;
68757;SDS011;55747;51.998;4.466;2022-09-17T04:21:30;9.23;;;1.17;;
68757;SDS011;55747;51.998;4.466;2022-09-17T04:23:55;9.27;;;1.20;;
68757;SDS011;55747;51.998;4.466;2022-09-17T04:26:21;5.80;;;1.20;;
68757;SDS011;55747;51.998;4.466;2022-09-17T04:28:46;9.77;;;1.00;;
68757;SDS011;55747;51.998;4.466;2022-09-17T04:31:11;8.33;;;1.30;;
68757;SDS011;55747;51.998;4.466;2022-09-17T04:33:36;5.13;;;1.03;;
68757;SDS011;55747;51.998;4.466;2022-09-17T04:36:02;4.17;;;0.70;;
68757;SDS011;55747;51.998;4.466;2022-09-17T04:38:27;6.07;;;1.00;;
68757;SDS011;55747;51.998;4.466;2022-09-17T04:40:53;8.23;;;1.10;;
68757;SDS011;55747;51.998;4.466;2022-09-17T04:43:21;8.18;;;1.10;;
68757;SDS011;55747;51.998;4.466;2022-09-17T04:45:46;6.05;;;1.10;;
68757;SDS011;55747;51.998;4.466;2022-09-17T04:48:13;9.18;;;1.13;;
68757;SDS011;55747;51.998;4.466;2022-09-17T04:50:38;6.82;;;1.17;;
68757;SDS011;55747;51.998;4.466;2022-09-17T04:53:04;8.15;;;1.13;;
68757;SDS011;55747;51.998;4.466;2022-09-17T04:55:29;8.90;;;1.00;;
68757;SDS011;55747;51.998;4.466;2022-09-17T04:57:55;9.93;;;1.10;;
68757;SDS011;55747;51.998;4.466;2022-09-17T05:00:21;7.57;;;0.90;;
68757;SDS011;55747;51.998;4.466;2022-09-17T05:02:48;7.00;;;1.30;;
68757;SDS011;55747;51.998;4.466;2022-09-17T05:05:15;7.20;;;0.98;;
68757;SDS011;55747;51.998;4.466;2022-09-17T05:07:42;9.60;;;1.00;;
68757;SDS011;55747;51.998;4.466;2022-09-17T05:10:08;9.32;;;1.20;;
68757;SDS011;55747;51.998;4.466;2022-09-17T05:12:36;10.23;;;1.33;;
68757;SDS011;55747;51.998;4.466;2022-09-17T05:15:02;6.70;;;0.80;;
68757;SDS011;55747;51.998;4.466;2022-09-17T05:17:28;5.78;;;0.85;;
68757;SDS011;55747;51.998;4.466;2022-09-17T05:19:53;12.32;;;0.77;;
68757;SDS011;55747;51.998;4.466;2022-09-17T05:22:19;7.93;;;1.00;;
68757;SDS011;55747;51.998;4.466;2022-09-17T05:24:45;12.32;;;0.93;;
68757;SDS011;55747;51.998;4.466;2022-09-17T05:27:10;7.10;;;1.02;;
68757;SDS011;55747;51.998;4.466;2022-09-17T05:29:35;9.68;;;1.20;;
68757;SDS011;55747;51.998;4.466;2022-09-17T05:32:01;8.90;;;1.30;;
68757;SDS011;55747;51.998;4.466;2022-09-17T05:34:30;8.50;;;1.10;;
68757;SDS011;55747;51.998;4.466;2022-09-17T05:36:55;9.75;;;1.05;;
68757;SDS011;55747;51.998;4.466;2022-09-17T05:39:20;13.97;;;1.07;;
68757;SDS011;55747;51.998;4.466;2022-09-17T05:41:49;7.45;;;1.10;;
68757;SDS011;55747;51.998;4.466;2022-09-17T05:44:17;12.65;;;1.10;;
68757;SDS011;55747;51.998;4.466;2022-09-17T05:46:43;13.77;;;1.60;;
68757;SDS011;55747;51.998;4.466;2022-09-17T05:49:10;7.10;;;1.27;;
68757;SDS011;55747;51.998;4.466;2022-09-17T05:51:35;14.55;;;1.50;;
68757;SDS011;55747;51.998;4.466;2022-09-17T05:54:00;5.13;;;1.00;;
68757;SDS011;55747;51.998;4.466;2022-09-17T05:56:25;7.93;;;0.93;;
68757;SDS011;55747;51.998;4.466;2022-09-17T05:58:54;8.57;;;1.27;;
68757;SDS011;55747;51.998;4.466;2022-09-17T06:01:20;6.55;;;0.93;;
68757;SDS011;55747;51.998;4.466;2022-09-17T06:03:45;10.20;;;1.37;;
68757;SDS011;55747;51.998;4.466;2022-09-17T06:06:10;8.30;;;1.03;;
68757;SDS011;55747;51.998;4.466;2022-09-17T06:08:36;11.73;;;1.30;;
68757;SDS011;55747;51.998;4.466;2022-09-17T06:11:04;12.13;;;1.42;;
68757;SDS011;55747;51.998;4.466;2022-09-17T06:13:31;9.27;;;1.02;;
68757;SDS011;55747;51.998;4.466;2022-09-17T06:15:57;7.45;;;0.95;;
68757;SDS011;55747;51.998;4.466;2022-09-17T06:18:22;10.20;;;1.23;;
68757;SDS011;55747;51.998;4.466;2022-09-17T06:20:54;6.97;;;1.15;;
68757;SDS011;55747;51.998;4.466;2022-09-17T06:23:20;9.50;;;1.40;;
68757;SDS011;55747;51.998;4.466;2022-09-17T06:25:49;8.13;;;1.30;;
68757;SDS011;55747;51.998;4.466;2022-09-17T06:28:16;10.80;;;1.50;;
68757;SDS011;55747;51.998;4.466;2022-09-17T06:30:42;12.27;;;1.43;;
68757;SDS011;55747;51.998;4.466;2022-09-17T06:33:07;7.10;;;0.93;;
68757;SDS011;55747;51.998;4.466;2022-09-17T06:35:32;6.37;;;1.03;;
68757;SDS011;55747;51.998;4.466;2022-09-17T06:37:57;7.07;;;1.40;;
68757;SDS011;55747;51.998;4.466;2022-09-17T06:40:23;10.70;;;1.33;;
68757;SDS011;55747;51.998;4.466;2022-09-17T06:42:48;7.60;;;1.15;;
68757;SDS011;55747;51.998;4.466;2022-09-17T06:45:13;6.85;;;1.08;;
68757;SDS011;55747;51.998;4.466;2022-09-17T06:47:39;10.83;;;1.63;;
68757;SDS011;55747;51.998;4.466;2022-09-17T06:50:04;7.60;;;1.00;;
68757;SDS011;55747;51.998;4.466;2022-09-17T06:52:30;9.77;;;1.50;;
68757;SDS011;55747;51.998;4.466;2022-09-17T06:54:55;7.57;;;1.00;;
68757;SDS011;55747;51.998;4.466;2022-09-17T06:57:21;8.73;;;1.00;;
68757;SDS011;55747;51.998;4.466;2022-09-17T06:59:46;6.70;;;1.05;;
68757;SDS011;55747;51.998;4.466;2022-09-17T07:02:13;11.10;;;1.33;;
68757;SDS011;55747;51.998;4.466;2022-09-17T07:04:39;8.77;;;1.10;;
68757;SDS011;55747;51.998;4.466;2022-09-17T07:07:04;8.15;;;1.30;;
68757;SDS011;55747;51.998;4.466;2022-09-17T07:09:30;7.68;;;1.13;;
68757;SDS011;55747;51.998;4.466;2022-09-17T07:11:55;5.88;;;1.00;;
68757;SDS011;55747;51.998;4.466;2022-09-17T07:14:21;9.82;;;1.38;;
68757;SDS011;55747;51.998;4.466;2022-09-17T07:16:48;9.80;;;1.25;;
68757;SDS011;55747;51.998;4.466;2022-09-17T07:19:14;7.57;;;1.20;;
68757;SDS011;55747;51.998;4.466;2022-09-17T07:21:39;9.35;;;1.65;;
68757;SDS011;55747;51.998;4.466;2022-09-17T07:24:04;7.75;;;1.15;;
68757;SDS011;55747;51.998;4.466;2022-09-17T07:26:30;10.70;;;1.48;;
68757;SDS011;55747;51.998;4.466;2022-09-17T07:28:55;8.20;;;1.30;;
68757;SDS011;55747;51.998;4.466;2022-09-17T07:31:22;5.97;;;0.90;;
68757;SDS011;55747;51.998;4.466;2022-09-17T07:33:50;7.22;;;1.20;;
68757;SDS011;55747;51.998;4.466;2022-09-17T07:36:15;4.90;;;0.95;;
68757;SDS011;55747;51.998;4.466;2022-09-17T07:38:44;4.10;;;0.90;;
68757;SDS011;55747;51.998;4.466;2022-09-17T07:41:10;3.37;;;0.70;;
68757;SDS011;55747;51.998;4.466;2022-09-17T07:43:37;3.92;;;0.90;;
68757;SDS011;55747;51.998;4.466;2022-09-17T07:46:03;5.97;;;0.98;;
68757;SDS011;55747;51.998;4.466;2022-09-17T07:48:30;5.22;;;0.80;;
68757;SDS011;55747;51.998;4.466;2022-09-17T07:50:55;7.25;;;1.00;;
68757;SDS011;55747;51.998;4.466;2022-09-17T07:53:20;6.88;;;1.08;;
68757;SDS011;55747;51.998;4.466;2022-09-17T07:56:20;8.20;;;1.27;;
68757;SDS011;55747;51.998;4.466;2022-09-17T07:58:38;7.93;;;1.13;;
68757;SDS011;55747;51.998;4.466;2022-09-17T08:01:04;4.97;;;0.90;;
68757;SDS011;55747;51.998;4.466;2022-09-17T08:03:34;7.35;;;1.13;;
68757;SDS011;55747;51.998;4.466;2022-09-17T08:06:04;6.15;;;0.90;;
68757;SDS011;55747;51.998;4.466;2022-09-17T08:08:31;4.82;;;0.60;;
68757;SDS011;55747;51.998;4.466;2022-09-17T08:11:05;2.47;;;0.90;;
68757;SDS011;55747;51.998;4.466;2022-09-17T08:13:30;4.15;;;0.70;;
68757;SDS011;55747;51.998;4.466;2022-09-17T08:15:59;1.83;;;0.50;;
68757;SDS011;55747;51.998;4.466;2022-09-17T08:18:25;3.63;;;0.57;;
68757;SDS011;55747;51.998;4.466;2022-09-17T08:20:51;2.22;;;0.50;;
68757;SDS011;55747;51.998;4.466;2022-09-17T08:23:16;5.20;;;0.80;;
68757;SDS011;55747;51.998;4.466;2022-09-17T08:25:49;3.47;;;0.77;;
68757;SDS011;55747;51.998;4.466;2022-09-17T08:28:23;3.63;;;0.75;;
68757;SDS011;55747;51.998;4.466;2022-09-17T08:30:52;3.58;;;0.80;;
68757;SDS011;55747;51.998;4.466;2022-09-17T08:33:21;3.80;;;0.80;;
68757;SDS011;55747;51.998;4.466;2022-09-17T08:35:53;6.27;;;1.00;;
68757;SDS011;55747;51.998;4.466;2022-09-17T08:38:23;4.18;;;0.70;;
68757;SDS011;55747;51.998;4.466;2022-09-17T08:43:30;3.17;;;0.90;;
68757;SDS011;55747;51.998;4.466;2022-09-17T08:46:00;5.13;;;0.70;;
68757;SDS011;55747;51.998;4.466;2022-09-17T08:48:27;5.65;;;0.68;;
68757;SDS011;55747;51.998;4.466;2022-09-17T08:51:02;4.90;;;0.75;;
68757;SDS011;55747;51.998;4.466;2022-09-17T08:53:40;4.47;;;0.98;;
68757;SDS011;55747;51.998;4.466;2022-09-17T08:56:20;3.60;;;0.60;;
68757;SDS011;55747;51.998;4.466;2022-09-17T09:01:44;3.30;;;0.65;;
68757;SDS011;55747;51.998;4.466;2022-09-17T09:07:16;4.93;;;0.70;;
68757;SDS011;55747;51.998;4.466;2022-09-17T09:09:49;5.75;;;0.90;;
68757;SDS011;55747;51.998;4.466;2022-09-17T09:12:24;2.70;;;0.85;;
68757;SDS011;55747;51.998;4.466;2022-09-17T09:15:27;3.05;;;0.75;;
68757;SDS011;55747;51.998;4.466;2022-09-17T09:17:58;4.85;;;0.75;;
68757;SDS011;55747;51.998;4.466;2022-09-17T09:20:30;4.43;;;1.02;;
68757;SDS011;55747;51.998;4.466;2022-09-17T09:23:09;6.85;;;1.00;;
68757;SDS011;55747;51.998;4.466;2022-09-17T09:25:50;7.03;;;1.00;;
68757;SDS011;55747;51.998;4.466;2022-09-17T09:33:53;5.07;;;0.85;;
68757;SDS011;55747;51.998;4.466;2022-09-17T09:36:19;3.95;;;0.70;;
68757;SDS011;55747;51.998;4.466;2022-09-17T09:39:46;4.03;;;0.70;;
68757;SDS011;55747;51.998;4.466;2022-09-17T09:44:23;5.32;;;0.98;;
68757;SDS011;55747;51.998;4.466;2022-09-17T10:00:37;5.80;;;1.13;;
68757;SDS011;55747;51.998;4.466;2022-09-17T10:03:20;5.55;;;1.15;;
68757;SDS011;55747;51.998;4.466;2022-09-17T10:05:51;3.25;;;0.88;;
68757;SDS011;55747;51.998;4.466;2022-09-17T10:08:18;11.40;;;1.38;;
68757;SDS011;55747;51.998;4.466;2022-09-17T10:10:54;8.75;;;1.40;;
68757;SDS011;55747;51.998;4.466;2022-09-17T10:13:22;5.13;;;1.17;;
68757;SDS011;55747;51.998;4.466;2022-09-17T10:15:48;11.10;;;1.65;;
68757;SDS011;55747;51.998;4.466;2022-09-17T10:18:17;9.48;;;1.35;;
68757;SDS011;55747;51.998;4.466;2022-09-17T10:20:54;8.45;;;1.67;;
68757;SDS011;55747;51.998;4.466;2022-09-17T10:23:25;13.80;;;1.85;;
68757;SDS011;55747;51.998;4.466;2022-09-17T10:25:53;8.00;;;1.55;;
68757;SDS011;55747;51.998;4.466;2022-09-17T10:31:09;10.73;;;1.70;;
68757;SDS011;55747;51.998;4.466;2022-09-17T10:33:37;6.88;;;1.30;;
68757;SDS011;55747;51.998;4.466;2022-09-17T10:36:05;7.10;;;1.02;;
68757;SDS011;55747;51.998;4.466;2022-09-17T10:38:43;6.43;;;1.35;;
68757;SDS011;55747;51.998;4.466;2022-09-17T10:41:14;6.32;;;1.00;;
68757;SDS011;55747;51.998;4.466;2022-09-17T10:43:42;9.50;;;1.08;;
68757;SDS011;55747;51.998;4.466;2022-09-17T10:46:09;11.13;;;1.65;;
68757;SDS011;55747;51.998;4.466;2022-09-17T10:48:40;9.52;;;1.83;;
68757;SDS011;55747;51.998;4.466;2022-09-17T10:51:08;8.95;;;1.60;;
68757;SDS011;55747;51.998;4.466;2022-09-17T10:53:53;4.95;;;1.20;;
68757;SDS011;55747;51.998;4.466;2022-09-17T10:56:26;5.20;;;1.30;;
68757;SDS011;55747;51.998;4.466;2022-09-17T11:01:46;8.32;;;1.42;;
68757;SDS011;55747;51.998;4.466;2022-09-17T11:09:38;5.63;;;1.38;;
68757;SDS011;55747;51.998;4.466;2022-09-17T11:12:39;7.13;;;1.40;;
68757;SDS011;55747;51.998;4.466;2022-09-17T11:28:47;6.28;;;1.60;;
68757;SDS011;55747;51.998;4.466;2022-09-17T11:37:03;9.63;;;1.92;;
68757;SDS011;55747;51.998;4.466;2022-09-17T11:39:40;8.98;;;1.90;;
68757;SDS011;55747;51.998;4.466;2022-09-17T11:42:15;10.43;;;1.90;;
68757;SDS011;55747;51.998;4.466;2022-09-17T11:44:53;9.40;;;1.63;;
68757;SDS011;55747;51.998;4.466;2022-09-17T11:47:30;8.02;;;1.67;;
68757;SDS011;55747;51.998;4.466;2022-09-17T11:50:01;8.55;;;1.60;;
68757;SDS011;55747;51.998;4.466;2022-09-17T11:52:38;10.15;;;1.60;;
68757;SDS011;55747;51.998;4.466;2022-09-17T11:58:16;15.68;;;1.67;;
68757;SDS011;55747;51.998;4.466;2022-09-17T12:01:06;9.88;;;1.70;;
68757;SDS011;55747;51.998;4.466;2022-09-17T12:03:40;12.60;;;2.17;;
68757;SDS011;55747;51.998;4.466;2022-09-17T12:06:13;14.70;;;2.28;;
68757;SDS011;55747;51.998;4.466;2022-09-17T12:11:26;9.40;;;1.70;;
68757;SDS011;55747;51.998;4.466;2022-09-17T12:14:11;10.70;;;1.60;;
68757;SDS011;55747;51.998;4.466;2022-09-17T12:16:45;9.15;;;1.42;;
68757;SDS011;55747;51.998;4.466;2022-09-17T12:19:22;10.38;;;1.63;;
68757;SDS011;55747;51.998;4.466;2022-09-17T12:21:53;8.27;;;1.80;;
68757;SDS011;55747;51.998;4.466;2022-09-17T12:24:24;8.68;;;1.63;;
68757;SDS011;55747;51.998;4.466;2022-09-17T12:27:08;10.60;;;1.58;;
68757;SDS011;55747;51.998;4.466;2022-09-17T12:29:57;9.45;;;1.88;;
68757;SDS011;55747;51.998;4.466;2022-09-17T12:41:02;6.05;;;1.40;;
68757;SDS011;55747;51.998;4.466;2022-09-17T12:43:59;8.05;;;1.60;;
68757;SDS011;55747;51.998;4.466;2022-09-17T12:51:54;7.47;;;1.60;;
68757;SDS011;55747;51.998;4.466;2022-09-17T12:59:53;8.15;;;1.63;;
68757;SDS011;55747;51.998;4.466;2022-09-17T13:03:02;8.27;;;1.40;;
68757;SDS011;55747;51.998;4.466;2022-09-17T13:05:27;6.10;;;1.30;;
68757;SDS011;55747;51.998;4.466;2022-09-17T13:11:07;11.43;;;1.67;;
68757;SDS011;55747;51.998;4.466;2022-09-17T13:13:36;9.00;;;1.52;;
68757;SDS011;55747;51.998;4.466;2022-09-17T13:16:13;7.78;;;1.55;;
68757;SDS011;55747;51.998;4.466;2022-09-17T13:24:45;8.90;;;1.57;;
68757;SDS011;55747;51.998;4.466;2022-09-17T13:27:24;6.95;;;1.60;;
68757;SDS011;55747;51.998;4.466;2022-09-17T13:40:38;10.40;;;1.85;;
68757;SDS011;55747;51.998;4.466;2022-09-17T13:45:27;12.60;;;2.00;;
68757;SDS011;55747;51.998;4.466;2022-09-17T13:47:54;8.50;;;1.75;;
68757;SDS011;55747;51.998;4.466;2022-09-17T13:50:26;10.23;;;1.80;;
68757;SDS011;55747;51.998;4.466;2022-09-17T13:52:54;10.57;;;2.03;;
68757;SDS011;55747;51.998;4.466;2022-09-17T13:57:56;8.48;;;1.70;;
68757;SDS011;55747;51.998;4.466;2022-09-17T14:22:10;7.57;;;1.75;;
68757;SDS011;55747;51.998;4.466;2022-09-17T14:37:58;9.55;;;1.38;;
68757;SDS011;55747;51.998;4.466;2022-09-17T14:40:26;6.65;;;1.30;;
68757;SDS011;55747;51.998;4.466;2022-09-17T14:42:54;8.73;;;1.20;;
68757;SDS011;55747;51.998;4.466;2022-09-17T14:45:30;10.00;;;1.60;;
68757;SDS011;55747;51.998;4.466;2022-09-17T14:53:39;9.32;;;1.52;;
68757;SDS011;55747;51.998;4.466;2022-09-17T14:56:06;11.30;;;1.60;;
68757;SDS011;55747;51.998;4.466;2022-09-17T14:58:36;5.15;;;1.17;;
68757;SDS011;55747;51.998;4.466;2022-09-17T15:01:27;7.40;;;1.42;;
68757;SDS011;55747;51.998;4.466;2022-09-17T15:06:37;13.40;;;1.65;;
68757;SDS011;55747;51.998;4.466;2022-09-17T15:09:16;8.30;;;1.80;;
68757;SDS011;55747;51.998;4.466;2022-09-17T15:11:54;12.50;;;1.83;;
68757;SDS011;55747;51.998;4.466;2022-09-17T15:14:28;8.63;;;1.60;;
68757;SDS011;55747;51.998;4.466;2022-09-17T15:16:57;8.27;;;1.40;;
68757;SDS011;55747;51.998;4.466;2022-09-17T15:19:26;9.95;;;1.63;;
68757;SDS011;55747;51.998;4.466;2022-09-17T15:22:03;11.05;;;1.98;;
68757;SDS011;55747;51.998;4.466;2022-09-17T15:24:40;9.35;;;1.40;;
68757;SDS011;55747;51.998;4.466;2022-09-17T15:27:19;11.60;;;1.50;;
68757;SDS011;55747;51.998;4.466;2022-09-17T15:29:50;7.22;;;1.65;;
68757;SDS011;55747;51.998;4.466;2022-09-17T15:32:29;12.73;;;1.77;;
68757;SDS011;55747;51.998;4.466;2022-09-17T15:37:48;8.90;;;1.40;;
68757;SDS011;55747;51.998;4.466;2022-09-17T15:43:15;8.60;;;1.65;;
68757;SDS011;55747;51.998;4.466;2022-09-17T15:45:42;10.32;;;1.42;;
68757;SDS011;55747;51.998;4.466;2022-09-17T15:48:19;9.57;;;1.50;;
68757;SDS011;55747;51.998;4.466;2022-09-17T15:50:59;9.52;;;1.52;;
68757;SDS011;55747;51.998;4.466;2022-09-17T15:53:29;12.38;;;1.90;;
68757;SDS011;55747;51.998;4.466;2022-09-17T15:56:18;11.18;;;1.80;;
68757;SDS011;55747;51.998;4.466;2022-09-17T16:08:52;7.27;;;1.27;;
68757;SDS011;55747;51.998;4.466;2022-09-17T16:11:20;7.18;;;1.20;;
68757;SDS011;55747;51.998;4.466;2022-09-17T16:13:48;4.07;;;0.88;;
68757;SDS011;55747;51.998;4.466;2022-09-17T16:16:18;6.07;;;1.15;;
68757;SDS011;55747;51.998;4.466;2022-09-17T16:18:45;6.50;;;1.00;;
68757;SDS011;55747;51.998;4.466;2022-09-17T16:21:13;7.25;;;1.15;;
68757;SDS011;55747;51.998;4.466;2022-09-17T16:23:43;6.90;;;1.25;;
68757;SDS011;55747;51.998;4.466;2022-09-17T16:26:09;7.88;;;1.35;;
68757;SDS011;55747;51.998;4.466;2022-09-17T16:28:39;6.93;;;1.10;;
68757;SDS011;55747;51.998;4.466;2022-09-17T16:31:04;8.10;;;1.02;;
68757;SDS011;55747;51.998;4.466;2022-09-17T16:33:30;5.72;;;0.90;;
68757;SDS011;55747;51.998;4.466;2022-09-17T16:35:57;4.75;;;1.00;;
68757;SDS011;55747;51.998;4.466;2022-09-17T16:38:23;8.55;;;0.90;;
68757;SDS011;55747;51.998;4.466;2022-09-17T16:40:58;8.82;;;1.27;;
68757;SDS011;55747;51.998;4.466;2022-09-17T16:43:24;7.00;;;0.90;;
68757;SDS011;55747;51.998;4.466;2022-09-17T16:46:00;7.00;;;1.05;;
68757;SDS011;55747;51.998;4.466;2022-09-17T16:48:30;6.30;;;1.00;;
68757;SDS011;55747;51.998;4.466;2022-09-17T16:50:57;9.15;;;1.33;;
68757;SDS011;55747;51.998;4.466;2022-09-17T16:53:25;4.25;;;0.70;;
68757;SDS011;55747;51.998;4.466;2022-09-17T16:55:51;7.78;;;1.08;;
68757;SDS011;55747;51.998;4.466;2022-09-17T16:58:16;7.07;;;1.33;;
68757;SDS011;55747;51.998;4.466;2022-09-17T17:00:41;5.53;;;0.73;;
68757;SDS011;55747;51.998;4.466;2022-09-17T17:03:08;4.95;;;0.80;;
68757;SDS011;55747;51.998;4.466;2022-09-17T17:05:36;5.88;;;0.90;;
68757;SDS011;55747;51.998;4.466;2022-09-17T17:08:02;5.72;;;0.95;;
68757;SDS011;55747;51.998;4.466;2022-09-17T17:10:28;9.93;;;1.40;;
68757;SDS011;55747;51.998;4.466;2022-09-17T17:12:54;6.63;;;1.00;;
68757;SDS011;55747;51.998;4.466;2022-09-17T17:15:23;9.65;;;1.40;;
68757;SDS011;55747;51.998;4.466;2022-09-17T17:18:00;8.75;;;1.20;;
68757;SDS011;55747;51.998;4.466;2022-09-17T17:20:27;13.75;;;2.40;;
68757;SDS011;55747;51.998;4.466;2022-09-17T17:22:59;11.27;;;1.80;;
68757;SDS011;55747;51.998;4.466;2022-09-17T17:25:45;9.65;;;1.40;;
68757;SDS011;55747;51.998;4.466;2022-09-17T17:28:14;8.80;;;1.30;;
68757;SDS011;55747;51.998;4.466;2022-09-17T17:30:45;14.32;;;1.83;;
68757;SDS011;55747;51.998;4.466;2022-09-17T17:33:17;10.10;;;1.50;;
68757;SDS011;55747;51.998;4.466;2022-09-17T17:35:43;9.48;;;1.25;;
68757;SDS011;55747;51.998;4.466;2022-09-17T17:38:21;8.77;;;1.63;;
68757;SDS011;55747;51.998;4.466;2022-09-17T17:43:52;7.07;;;1.40;;
68757;SDS011;55747;51.998;4.466;2022-09-17T17:46:18;8.77;;;1.10;;
68757;SDS011;55747;51.998;4.466;2022-09-17T17:51:44;8.35;;;1.40;;
68757;SDS011;55747;51.998;4.466;2022-09-17T17:57:38;7.55;;;1.13;;
68757;SDS011;55747;51.998;4.466;2022-09-17T18:00:21;5.82;;;1.10;;
68757;SDS011;55747;51.998;4.466;2022-09-17T18:03:05;7.45;;;1.30;;
68757;SDS011;55747;51.998;4.466;2022-09-17T18:05:52;6.10;;;1.20;;
68757;SDS011;55747;51.998;4.466;2022-09-17T18:08:31;10.80;;;1.58;;
68757;SDS011;55747;51.998;4.466;2022-09-17T18:11:11;6.53;;;1.43;;
68757;SDS011;55747;51.998;4.466;2022-09-17T18:13:55;7.07;;;1.17;;
68757;SDS011;55747;51.998;4.466;2022-09-17T18:16:32;6.90;;;1.10;;
68757;SDS011;55747;51.998;4.466;2022-09-17T18:18:58;9.75;;;1.17;;
68757;SDS011;55747;51.998;4.466;2022-09-17T18:21:27;6.22;;;1.13;;
68757;SDS011;55747;51.998;4.466;2022-09-17T18:23:53;10.98;;;1.13;;
68757;SDS011;55747;51.998;4.466;2022-09-17T18:26:21;7.13;;;1.10;;
68757;SDS011;55747;51.998;4.466;2022-09-17T18:28:56;7.35;;;1.17;;
68757;SDS011;55747;51.998;4.466;2022-09-17T18:31:25;4.00;;;1.20;;
68757;SDS011;55747;51.998;4.466;2022-09-17T18:36:24;7.03;;;1.38;;
68757;SDS011;55747;51.998;4.466;2022-09-17T18:38:55;6.18;;;0.85;;